createdAt,value
2022-08-11T04:02:00.512Z,63.35
2022-08-11T04:05:08.438Z,63.92
2022-08-11T04:08:21.309Z,64.16
2022-08-11T04:11:13.974Z,65.85
2022-08-11T04:14:22.005Z,66.01
2022-08-11T04:17:08.426Z,66.44
2022-08-11T04:20:19.779Z,67.17
2022-08-11T04:24:35.148Z,67.51
2022-08-11T04:26:34.366Z,66.48
2022-08-11T04:29:15.359Z,66.96
2022-08-11T04:32:02.193Z,67.42
2022-08-11T04:34:51.866Z,67.36
2022-08-11T04:37:40.510Z,67.82
2022-08-11T04:40:32.654Z,67.59
2022-08-11T04:44:02.851Z,68.22
2022-08-11T04:46:54.272Z,67.75
2022-08-11T04:50:17.178Z,68.11
2022-08-11T04:53:24.654Z,68.39
2022-08-11T04:56:26.726Z,68.13
2022-08-11T04:59:51.171Z,68.05
2022-08-11T05:02:51.718Z,68.56
2022-08-11T05:05:32.264Z,68.70
2022-08-11T05:08:39.947Z,69.41
2022-08-11T05:11:36.493Z,70.70
2022-08-11T05:14:46.225Z,71.01
2022-08-11T05:17:34.565Z,70.36
2022-08-11T05:20:20.314Z,70.24
2022-08-11T05:23:10.290Z,70.42
2022-08-11T05:26:44.213Z,70.39
2022-08-11T05:29:20.081Z,71.51
2022-08-11T05:32:10.166Z,72.07
2022-08-11T05:34:56.814Z,72.87
2022-08-11T05:37:32.940Z,72.75
2022-08-11T05:40:26.026Z,72.68
2022-08-11T05:43:16.281Z,72.71
2022-08-11T05:46:06.180Z,73.70
2022-08-11T05:48:55.532Z,72.23
2022-08-11T05:51:55.049Z,73.01
2022-08-11T05:54:42.659Z,72.12
2022-08-11T05:57:44.047Z,71.06
2022-08-11T06:00:11.911Z,70.80
2022-08-11T06:02:44.413Z,71.66
2022-08-11T06:05:14.121Z,71.89
2022-08-11T06:07:48.912Z,71.43
2022-08-11T06:10:27.377Z,73.19
2022-08-11T06:12:58.018Z,72.54
2022-08-11T06:15:27.142Z,71.24
2022-08-11T06:17:57.034Z,72.43
2022-08-11T06:20:26.225Z,72.13
2022-08-11T06:22:59.602Z,70.61
2022-08-11T06:25:32.198Z,71.17
2022-08-11T06:28:01.783Z,71.89
2022-08-11T06:30:40.432Z,71.34
2022-08-11T06:33:11.219Z,70.79
2022-08-11T06:35:48.310Z,71.31
2022-08-11T06:38:27.161Z,70.80
2022-08-11T06:41:25.139Z,70.59
2022-08-11T06:44:05.179Z,69.86
2022-08-11T06:46:38.758Z,69.27
2022-08-11T06:49:27.247Z,67.97
2022-08-11T06:51:56.742Z,68.15
2022-08-11T06:54:31.875Z,66.73
2022-08-11T06:57:34.207Z,68.39
2022-08-11T07:00:28.785Z,67.13
2022-08-11T07:03:02.656Z,66.74
2022-08-11T07:05:43.740Z,67.18
2022-08-11T07:08:58.883Z,67.58
2022-08-11T07:12:18.994Z,68.00
2022-08-11T07:15:09.621Z,67.49
2022-08-11T07:17:49.088Z,66.72
2022-08-11T07:20:35.769Z,65.64
2022-08-11T07:23:22.698Z,65.34
2022-08-11T07:26:11.616Z,64.63
2022-08-11T07:28:58.800Z,64.49
2022-08-11T07:31:33.408Z,64.60
2022-08-11T07:34:18.845Z,64.11
2022-08-11T07:36:51.410Z,64.61
2022-08-11T07:39:22.653Z,64.87
2022-08-11T07:41:52.452Z,63.41
2022-08-11T07:44:20.645Z,63.39
2022-08-11T07:47:07.809Z,63.08
2022-08-11T07:49:57.354Z,63.37
2022-08-11T07:52:32.657Z,62.13
2022-08-11T07:55:05.742Z,62.17
2022-08-11T07:58:14.958Z,62.13
2022-08-11T08:01:03.897Z,61.16
2022-08-11T08:03:57.457Z,60.40
2022-08-11T08:06:46.168Z,60.24
2022-08-11T08:09:34.017Z,60.35
2022-08-11T08:12:21.372Z,59.98
2022-08-11T08:15:07.343Z,58.76
2022-08-11T08:18:09.776Z,58.36
2022-08-11T08:20:49.608Z,58.58
2022-08-11T08:23:32.810Z,58.24
2022-08-11T08:26:01.739Z,58.20
2022-08-11T08:28:32.481Z,57.75
2022-08-11T08:31:00.221Z,56.14
2022-08-11T08:33:31.173Z,56.60
2022-08-11T08:36:12.519Z,57.10
2022-08-11T08:38:43.446Z,56.88
2022-08-11T08:41:16.274Z,56.37
2022-08-11T08:43:49.568Z,56.11
2022-08-11T08:46:20.483Z,55.68
2022-08-11T08:48:49.145Z,55.36
2022-08-11T08:52:01.927Z,55.33
2022-08-11T08:54:31.587Z,54.57
2022-08-11T08:57:05.214Z,55.11
2022-08-11T08:59:47.458Z,54.94
2022-08-11T09:02:19.813Z,53.12
2022-08-11T09:05:03.758Z,51.54
2022-08-11T09:07:39.446Z,50.31
2022-08-11T09:10:11.760Z,51.18
2022-08-11T09:12:42.520Z,51.02
2022-08-11T09:15:12.442Z,47.34
2022-08-11T09:17:42.186Z,46.72
2022-08-11T09:20:15.631Z,46.46
2022-08-11T09:24:02.143Z,46.98
2022-08-11T09:26:13.532Z,45.14
2022-08-11T09:28:43.421Z,42.07
2022-08-11T09:31:13.437Z,42.84
2022-08-11T09:33:42.883Z,43.32
2022-08-11T09:36:42.948Z,42.80
2022-08-11T09:39:31.491Z,41.93
2022-08-11T09:42:04.287Z,41.56
2022-08-11T09:44:48.882Z,39.92
2022-08-11T09:47:24.565Z,39.45
2022-08-11T09:49:56.070Z,39.12
2022-08-11T09:52:25.666Z,41.17
2022-08-11T09:54:55.406Z,41.92
2022-08-11T09:57:43.926Z,40.32
2022-08-11T10:00:14.962Z,39.69
2022-08-11T10:02:45.999Z,40.24
2022-08-11T10:05:36.173Z,39.60
2022-08-11T10:08:05.569Z,39.12
2022-08-11T10:10:36.694Z,39.69
2022-08-11T10:14:30.632Z,39.40
2022-08-11T10:16:15.405Z,39.31
2022-08-11T10:18:52.827Z,39.12
2022-08-11T10:21:29.068Z,39.40
2022-08-11T10:24:17.716Z,39.65
2022-08-11T10:26:58.483Z,39.23
2022-08-11T10:29:51.218Z,36.42
2022-08-11T10:32:57.669Z,36.89
2022-08-11T10:35:27.986Z,37.47
2022-08-11T10:38:07.729Z,37.23
2022-08-11T10:40:40.418Z,37.20
2022-08-11T10:43:13.559Z,37.49
2022-08-11T10:46:03.707Z,36.71
2022-08-11T10:48:37.760Z,37.17
2022-08-11T10:51:50.698Z,37.13
2022-08-11T10:54:24.016Z,37.40
2022-08-11T10:57:11.281Z,37.17
2022-08-11T10:59:40.753Z,37.79
2022-08-11T11:02:14.743Z,37.04
2022-08-11T11:04:58.302Z,36.94
2022-08-11T11:07:44.209Z,35.93
2022-08-11T11:10:12.447Z,36.36
2022-08-11T11:13:00.414Z,36.43
2022-08-11T11:15:48.776Z,35.77
2022-08-11T11:18:21.911Z,36.19
2022-08-11T11:20:54.742Z,36.11
2022-08-11T11:23:26.417Z,35.28
2022-08-11T11:26:09.947Z,35.48
2022-08-11T11:29:08.586Z,35.21
2022-08-11T11:31:48.690Z,35.78
2022-08-11T11:34:52.832Z,35.25
2022-08-11T11:37:23.474Z,35.57
2022-08-11T11:39:52.190Z,35.74
2022-08-11T11:42:21.692Z,34.62
2022-08-11T11:44:51.367Z,34.67
2022-08-11T11:47:22.885Z,34.33
2022-08-11T11:49:53.017Z,34.40
2022-08-11T11:52:22.600Z,32.58
2022-08-11T11:54:53.666Z,32.71
2022-08-11T11:57:40.309Z,32.78
2022-08-11T12:00:33.306Z,32.88
2022-08-11T12:03:04.966Z,32.09
2022-08-11T12:05:36.014Z,32.24
2022-08-11T12:08:14.334Z,31.26
2022-08-11T12:10:45.555Z,31.00
2022-08-11T12:13:46.129Z,31.24
2022-08-11T12:16:33.991Z,30.42
2022-08-11T12:19:06.996Z,29.57
2022-08-11T12:21:37.621Z,29.44
2022-08-11T12:24:29.409Z,29.08
2022-08-11T12:27:17.803Z,28.62
2022-08-11T12:29:54.543Z,28.55
2022-08-11T12:32:26.481Z,27.61
2022-08-11T12:34:56.835Z,28.36
2022-08-11T12:37:31.053Z,28.11
2022-08-11T12:40:43.030Z,27.99
2022-08-11T12:43:38.998Z,28.04
2022-08-11T12:46:10.350Z,27.79
2022-08-11T12:49:03.250Z,26.93
2022-08-11T12:52:01.386Z,27.36
2022-08-11T12:54:51.581Z,27.69
2022-08-11T12:57:44.386Z,28.34
2022-08-11T13:00:30.964Z,27.59
2022-08-11T13:03:16.736Z,28.06
2022-08-11T13:05:47.069Z,27.41
2022-08-11T13:08:15.693Z,27.50
2022-08-11T13:11:04.646Z,26.90
2022-08-11T13:13:55.501Z,27.28
2022-08-11T13:16:23.029Z,26.87
2022-08-11T13:18:53.246Z,27.51
2022-08-11T13:21:22.860Z,27.43
2022-08-11T13:24:01.354Z,26.45
2022-08-11T13:26:37.473Z,25.77
2022-08-11T13:29:17.728Z,25.42
2022-08-11T13:31:46.239Z,25.43
2022-08-11T13:34:15.678Z,25.00
2022-08-11T13:36:44.804Z,25.64
2022-08-11T13:39:14.241Z,25.48
2022-08-11T13:41:46.684Z,25.80
2022-08-11T13:44:23.275Z,25.65
2022-08-11T13:46:55.140Z,25.41
2022-08-11T13:49:23.587Z,24.87
2022-08-11T13:51:51.769Z,25.56
2022-08-11T13:54:23.535Z,25.09
2022-08-11T13:56:55.941Z,25.17
2022-08-11T13:59:29.505Z,24.20
2022-08-11T14:02:20.808Z,23.54
2022-08-11T14:04:53.768Z,23.96
2022-08-11T14:07:23.331Z,23.54
2022-08-11T14:09:57.193Z,23.67
2022-08-11T14:12:46.537Z,22.94
2022-08-11T14:15:20.804Z,24.77
2022-08-11T14:17:53.437Z,25.23
2022-08-11T14:20:39.759Z,25.21
2022-08-11T14:23:12.120Z,25.07
2022-08-11T14:26:02.853Z,25.45
2022-08-11T14:28:40.241Z,25.69
2022-08-11T14:31:13.542Z,25.54
2022-08-11T14:34:00.081Z,24.78
2022-08-11T14:36:32.834Z,25.25
2022-08-11T14:39:04.113Z,24.21
2022-08-11T14:42:11.324Z,25.08
2022-08-11T14:44:57.799Z,24.89
2022-08-11T14:47:28.814Z,23.68
2022-08-11T14:50:10.039Z,23.61
2022-08-11T14:52:44.565Z,23.49
2022-08-11T14:55:31.832Z,24.60
2022-08-11T14:58:01.632Z,24.33
2022-08-11T15:00:31.511Z,24.49
2022-08-11T15:03:11.960Z,25.08
2022-08-11T15:05:55.791Z,24.52
2022-08-11T15:08:47.087Z,25.31
2022-08-11T15:11:34.355Z,25.00
2022-08-11T15:14:04.335Z,25.23
2022-08-11T15:16:51.733Z,25.66
2022-08-11T15:19:21.844Z,25.26
2022-08-11T15:22:07.961Z,25.54
2022-08-11T15:24:36.424Z,25.94
2022-08-11T15:27:28.871Z,26.13
2022-08-11T15:30:29.886Z,25.63
2022-08-11T15:33:24.323Z,26.07
2022-08-11T15:36:11.721Z,26.33
2022-08-11T15:38:45.287Z,26.57
2022-08-11T15:41:34.151Z,26.29
2022-08-11T15:44:44.584Z,26.33
2022-08-11T15:47:15.560Z,26.75
2022-08-11T15:50:11.813Z,26.25
2022-08-11T15:52:47.048Z,26.50
2022-08-11T15:55:16.246Z,25.89
2022-08-11T15:58:03.022Z,26.44
2022-08-11T16:00:48.589Z,26.72
2022-08-11T16:04:06.560Z,26.54
2022-08-11T16:06:37.830Z,25.69
2022-08-11T16:09:18.322Z,26.20
2022-08-11T16:11:47.559Z,26.32
2022-08-11T16:14:35.793Z,26.64
2022-08-11T16:17:05.187Z,26.57
2022-08-11T16:19:36.380Z,26.24
2022-08-11T16:22:08.947Z,26.56
2022-08-11T16:27:01.926Z,26.93
2022-08-11T16:27:29.046Z,26.25
2022-08-11T16:29:57.694Z,25.90
2022-08-11T16:32:27.039Z,25.86
2022-08-11T16:35:17.095Z,26.41
2022-08-11T16:38:05.110Z,26.97
2022-08-11T16:40:34.537Z,26.97
2022-08-11T16:43:21.934Z,26.53
2022-08-11T16:46:08.152Z,26.85
2022-08-11T16:48:39.030Z,27.12
2022-08-11T16:51:08.326Z,27.02
2022-08-11T16:53:59.543Z,27.50
2022-08-11T16:56:31.366Z,27.38
2022-08-11T16:59:17.919Z,26.88
2022-08-11T17:01:52.933Z,27.39
2022-08-11T17:04:46.568Z,27.58
2022-08-11T17:07:42.415Z,28.00
2022-08-11T17:10:51.727Z,28.07
2022-08-11T17:13:29.270Z,28.49
2022-08-11T17:16:11.657Z,28.31
2022-08-11T17:18:45.660Z,28.53
2022-08-11T17:21:20.633Z,28.76
2022-08-11T17:23:51.857Z,28.84
2022-08-11T17:26:26.186Z,29.20
2022-08-11T17:28:58.856Z,29.07
2022-08-11T17:31:45.786Z,28.94
2022-08-11T17:34:32.158Z,28.93
2022-08-11T17:37:00.970Z,28.83
2022-08-11T17:39:32.511Z,29.30
2022-08-11T17:42:32.030Z,28.96
2022-08-11T17:45:22.830Z,28.35
2022-08-11T17:48:08.881Z,28.94
2022-08-11T17:50:37.836Z,28.99
2022-08-11T17:53:23.855Z,28.67
2022-08-11T17:56:11.081Z,28.35
2022-08-11T17:59:22.894Z,28.59
2022-08-11T18:02:22.961Z,28.87
2022-08-11T18:05:12.229Z,28.79
2022-08-11T18:08:00.773Z,28.76
2022-08-11T18:10:48.107Z,29.71
2022-08-11T18:13:34.956Z,28.99
2022-08-11T18:16:22.108Z,28.92
2022-08-11T18:19:07.401Z,29.09
2022-08-11T18:22:08.211Z,28.86
2022-08-11T18:25:05.951Z,29.30
2022-08-11T18:27:53.333Z,29.21
2022-08-11T18:30:38.791Z,29.66
2022-08-11T18:36:38.541Z,29.65
2022-08-11T18:39:24.899Z,29.46
2022-08-11T18:42:11.824Z,29.58
2022-08-11T18:45:06.961Z,29.88
2022-08-11T18:47:53.457Z,29.91
2022-08-11T18:50:45.101Z,29.86
2022-08-11T18:53:35.919Z,30.13
2022-08-11T18:56:28.310Z,30.72
2022-08-11T18:59:16.003Z,30.55
2022-08-11T19:02:03.028Z,31.05
2022-08-11T19:04:49.181Z,31.15
2022-08-11T19:07:37.201Z,30.85
2022-08-11T19:10:24.530Z,30.97
2022-08-11T19:13:10.473Z,30.97
2022-08-11T19:15:56.806Z,31.19
2022-08-11T19:18:43.961Z,31.23
2022-08-11T19:21:30.876Z,31.42
2022-08-11T19:24:21.115Z,31.60
2022-08-11T19:27:08.854Z,31.98
2022-08-11T19:30:05.279Z,31.93
2022-08-11T19:32:59.721Z,32.11
2022-08-11T19:35:46.038Z,32.56
2022-08-11T19:38:31.874Z,32.42
2022-08-11T19:41:56.132Z,32.41
2022-08-11T19:44:25.424Z,32.69
2022-08-11T19:47:11.664Z,32.66
2022-08-11T19:50:00.583Z,32.81
2022-08-11T19:52:47.580Z,33.15
2022-08-11T19:55:34.258Z,33.08
2022-08-11T19:58:22.598Z,33.17
2022-08-11T20:01:08.249Z,33.26
2022-08-11T20:03:54.063Z,33.76
2022-08-11T20:06:40.505Z,33.82
2022-08-11T20:09:28.531Z,33.56
2022-08-11T20:12:35.077Z,34.08
2022-08-11T20:15:22.676Z,33.89
2022-08-11T20:18:08.335Z,33.76
2022-08-11T20:20:54.396Z,33.86
2022-08-11T20:23:40.612Z,33.77
2022-08-11T20:26:31.284Z,33.76
2022-08-11T20:29:18.897Z,34.46
2022-08-11T20:32:06.587Z,34.29
2022-08-11T20:34:57.266Z,34.13
2022-08-11T20:37:47.678Z,34.47
2022-08-11T20:40:36.706Z,34.37
2022-08-11T20:44:06.338Z,34.32
2022-08-11T20:46:29.729Z,34.69
2022-08-11T20:49:19.857Z,34.76
2022-08-11T20:52:06.226Z,34.55
2022-08-11T20:54:53.474Z,34.93
2022-08-11T20:58:00.269Z,34.88
2022-08-11T21:00:45.869Z,34.54
2022-08-11T21:03:36.246Z,34.55
2022-08-11T21:06:33.841Z,34.74
2022-08-11T21:09:25.033Z,35.02
2022-08-11T21:12:30.637Z,35.13
2022-08-11T21:15:47.284Z,34.79
2022-08-11T21:18:27.469Z,34.70
2022-08-11T21:21:18.711Z,34.70
2022-08-11T21:24:07.233Z,35.05
2022-08-11T21:27:01.566Z,35.17
2022-08-11T21:29:51.136Z,35.17
2022-08-11T21:32:38.225Z,35.38
2022-08-11T21:35:24.505Z,35.30
2022-08-11T21:38:10.265Z,35.59
2022-08-11T21:40:59.822Z,35.73
2022-08-11T21:43:47.080Z,35.85
2022-08-11T21:46:36.294Z,36.09
2022-08-11T21:49:22.811Z,35.75
2022-08-11T21:52:08.084Z,36.02
2022-08-11T21:54:53.844Z,36.05
2022-08-11T21:57:47.971Z,36.09
2022-08-11T22:00:35.961Z,36.13
2022-08-11T22:03:23.391Z,36.36
2022-08-11T22:06:09.658Z,36.43
2022-08-11T22:08:55.452Z,36.31
2022-08-11T22:11:40.632Z,36.49
2022-08-11T22:14:26.973Z,36.38
2022-08-11T22:17:12.191Z,36.44
2022-08-11T22:19:59.705Z,36.55
2022-08-11T22:22:52.272Z,36.51
2022-08-11T22:25:46.468Z,36.45
2022-08-11T22:28:37.286Z,36.43
2022-08-11T22:31:25.719Z,36.42
2022-08-11T22:34:11.645Z,36.60
2022-08-11T22:36:59.373Z,36.66
2022-08-11T22:39:45.643Z,36.47
2022-08-11T22:42:47.366Z,36.67
2022-08-11T22:45:33.017Z,36.90
2022-08-11T22:48:20.573Z,36.78
2022-08-11T22:51:06.368Z,37.02
2022-08-11T22:53:57.593Z,36.90
2022-08-11T22:56:46.435Z,37.27
2022-08-11T22:59:34.107Z,37.34
